createdAt,value
2022-11-07T00:01:53.007Z,100386.19
2022-11-07T00:04:20.961Z,100387.03
2022-11-07T00:06:48.944Z,100390.53
2022-11-07T00:09:18.417Z,100388.72
2022-11-07T00:11:46.462Z,100384.19
2022-11-07T00:14:15.133Z,100379.09
2022-11-07T00:16:43.183Z,100378.81
2022-11-07T00:19:12.080Z,100370.63
2022-11-07T00:21:40.158Z,100383.34
2022-11-07T00:24:09.496Z,100384.19
2022-11-07T00:26:39.278Z,100388.72
2022-11-07T00:29:07.908Z,100372.41
2022-11-07T00:31:35.929Z,100377.53
2022-11-07T00:34:03.892Z,100371.88
2022-11-07T00:36:31.938Z,100377.25
2022-11-07T00:39:00.240Z,100358.69
2022-11-07T00:41:28.567Z,100379.94
2022-11-07T00:43:57.960Z,100375.44
2022-11-07T00:46:25.995Z,100364.25
2022-11-07T00:48:54.009Z,100368.22
2022-11-07T00:51:23.803Z,100372.59
2022-11-07T00:53:52.703Z,100362.13
2022-11-07T00:56:22.748Z,100353.81
2022-11-07T00:58:54.244Z,100358.47
2022-11-07T01:01:28.160Z,100358.31
2022-11-07T01:04:14.161Z,100361.31
2022-11-07T01:06:44.151Z,100355.94
2022-11-07T01:09:13.879Z,100357.75
2022-11-07T01:11:42.298Z,100356.75
2022-11-07T01:14:11.569Z,100355.06
2022-11-07T01:16:41.982Z,100361.41
2022-11-07T01:19:11.076Z,100364.09
2022-11-07T01:21:39.918Z,100353.38
2022-11-07T01:24:10.570Z,100356.91
2022-11-07T01:26:39.937Z,100348.00
2022-11-07T01:29:08.376Z,100350.69
2022-11-07T01:31:37.136Z,100357.06
2022-11-07T01:34:06.603Z,100348.69
2022-11-07T01:36:34.626Z,100339.94
2022-11-07T01:39:02.865Z,100351.69
2022-11-07T01:41:32.975Z,100359.00
2022-11-07T01:44:03.183Z,100344.88
2022-11-07T01:46:33.571Z,100332.72
2022-11-07T01:49:11.845Z,100335.94
2022-11-07T01:51:44.948Z,100336.22
2022-11-07T01:54:14.976Z,100333.53
2022-11-07T01:56:45.464Z,100309.50
2022-11-07T01:59:19.412Z,100332.72
2022-11-07T02:01:50.271Z,100331.00
2022-11-07T02:04:23.201Z,100324.78
2022-11-07T02:06:58.279Z,100323.09
2022-11-07T02:09:26.279Z,100323.22
2022-11-07T02:11:54.128Z,100324.22
2022-11-07T02:14:22.039Z,100321.53
2022-11-07T02:16:50.062Z,100323.22
2022-11-07T02:19:26.996Z,100321.22
2022-11-07T02:22:00.607Z,100319.97
2022-11-07T02:24:32.818Z,100321.38
2022-11-07T02:27:04.595Z,100312.34
2022-11-07T02:29:34.503Z,100312.34
2022-11-07T02:32:03.560Z,100307.09
2022-11-07T02:34:31.560Z,100296.38
2022-11-07T02:37:03.142Z,100305.97
2022-11-07T02:39:32.519Z,100308.81
2022-11-07T02:42:02.427Z,100303.44
2022-11-07T02:44:31.538Z,100283.78
2022-11-07T02:47:00.114Z,100295.41
2022-11-07T02:49:28.041Z,100287.47
2022-11-07T02:51:55.941Z,100294.81
2022-11-07T02:54:23.811Z,100292.25
2022-11-07T02:56:53.106Z,100292.25
2022-11-07T02:59:26.624Z,100288.84
2022-11-07T03:01:55.174Z,100284.47
2022-11-07T03:04:24.138Z,100275.56
2022-11-07T03:06:52.055Z,100265.97
2022-11-07T03:09:20.048Z,100267.94
2022-11-07T03:11:48.039Z,100265.97
2022-11-07T03:14:17.342Z,100269.63
2022-11-07T03:16:45.279Z,100257.19
2022-11-07T03:19:13.145Z,100254.50
2022-11-07T03:21:41.036Z,100252.94
2022-11-07T03:24:09.055Z,100249.41
2022-11-07T03:26:36.924Z,100245.75
2022-11-07T03:29:04.783Z,100234.16
2022-11-07T03:31:34.046Z,100230.38
2022-11-07T03:34:02.076Z,100214.53
2022-11-07T03:36:30.096Z,100212.56
2022-11-07T03:38:57.964Z,100209.88
2022-11-07T03:41:25.889Z,100213.41
2022-11-07T03:43:54.011Z,100200.13
2022-11-07T03:46:21.977Z,100203.63
2022-11-07T03:48:51.215Z,100197.44
2022-11-07T03:51:19.103Z,100197.31
2022-11-07T03:53:46.968Z,100201.69
2022-11-07T03:56:15.090Z,100172.97
2022-11-07T03:58:42.932Z,100198.28
2022-11-07T04:01:13.220Z,100193.06
2022-11-07T04:03:42.826Z,100183.44
2022-11-07T04:06:13.726Z,100168.16
2022-11-07T04:08:41.570Z,100184.31
2022-11-07T04:11:29.437Z,100190.66
2022-11-07T04:14:14.551Z,100191.66
2022-11-07T04:17:01.327Z,100178.88
2022-11-07T04:19:29.338Z,100181.19
2022-11-07T04:21:58.589Z,100180.06
2022-11-07T04:24:26.472Z,100172.13
2022-11-07T04:27:10.879Z,100163.22
2022-11-07T04:29:38.745Z,100171.28
2022-11-07T04:32:06.717Z,100181.03
2022-11-07T04:34:34.576Z,100174.69
2022-11-07T04:37:03.892Z,100164.75
2022-11-07T04:39:31.795Z,100172.97
2022-11-07T04:41:59.752Z,100165.78
2022-11-07T04:44:27.650Z,100171.00
2022-11-07T04:46:55.591Z,100159.44
2022-11-07T04:49:23.440Z,100155.31
2022-11-07T04:51:56.204Z,100163.81
2022-11-07T04:54:25.555Z,100161.84
2022-11-07T04:56:53.418Z,100166.22
2022-11-07T04:59:21.250Z,100163.38
2022-11-07T05:01:49.298Z,100164.25
2022-11-07T05:04:17.268Z,100162.41
2022-11-07T05:06:45.126Z,100175.56
2022-11-07T05:09:17.832Z,100159.31
2022-11-07T05:11:47.852Z,100130.75
2022-11-07T05:14:16.849Z,100131.63
2022-11-07T05:16:44.907Z,100113.84
2022-11-07T05:19:17.265Z,100128.13
2022-11-07T05:21:45.558Z,100115.66
2022-11-07T05:24:13.046Z,100102.25
2022-11-07T05:26:41.337Z,100092.22
2022-11-07T05:29:12.762Z,100091.38
2022-11-07T05:31:40.875Z,100088.84
2022-11-07T05:34:13.526Z,100087.13
2022-11-07T05:36:42.412Z,100089.81
2022-11-07T05:39:10.396Z,100089.00
2022-11-07T05:41:38.255Z,100094.34
2022-11-07T05:44:06.720Z,100090.66
2022-11-07T05:46:35.964Z,100091.69
2022-11-07T05:49:03.873Z,100087.13
2022-11-07T05:51:31.770Z,100089.81
2022-11-07T05:53:59.762Z,100090.66
2022-11-07T05:56:27.644Z,100098.59
2022-11-07T05:58:55.575Z,100109.34
2022-11-07T06:01:23.531Z,100118.09
2022-11-07T06:03:52.937Z,100125.00
2022-11-07T06:06:20.794Z,100122.31
2022-11-07T06:08:48.954Z,100116.09
2022-11-07T06:11:16.822Z,100117.81
2022-11-07T06:13:44.680Z,100125.88
2022-11-07T06:16:12.562Z,100122.19
2022-11-07T06:18:41.821Z,100119.38
2022-11-07T06:21:11.213Z,100125.44
2022-11-07T06:23:39.102Z,100124.59
2022-11-07T06:26:06.969Z,100127.28
2022-11-07T06:28:34.994Z,100127.81
2022-11-07T06:31:03.534Z,100132.63
2022-11-07T06:33:31.730Z,100132.78
2022-11-07T06:36:05.950Z,100124.31
2022-11-07T06:38:35.295Z,100137.31
2022-11-07T06:41:08.003Z,100143.66
2022-11-07T06:43:36.064Z,100147.34
2022-11-07T06:46:06.027Z,100145.50
2022-11-07T06:48:34.338Z,100145.63
2022-11-07T06:51:04.223Z,100150.88
2022-11-07T06:53:32.359Z,100142.94
2022-11-07T06:56:02.938Z,100149.16
2022-11-07T06:58:31.257Z,100134.88
2022-11-07T07:01:02.167Z,100139.28
2022-11-07T07:03:30.486Z,100132.47
2022-11-07T07:06:02.919Z,100131.50
2022-11-07T07:08:31.170Z,100130.66
2022-11-07T07:11:05.794Z,100117.94
2022-11-07T07:13:34.467Z,100126.84
2022-11-07T07:16:02.562Z,100127.69
2022-11-07T07:18:31.212Z,100123.19
2022-11-07T07:21:04.887Z,100113.16
2022-11-07T07:23:34.723Z,100108.75
2022-11-07T07:26:04.407Z,100105.81
2022-11-07T07:28:32.445Z,100106.81
2022-11-07T07:31:18.683Z,100103.97
2022-11-07T07:33:47.928Z,100049.56
2022-11-07T07:36:20.536Z,100066.66
2022-11-07T07:38:49.690Z,100047.75
2022-11-07T07:41:19.462Z,100034.34
2022-11-07T07:43:47.946Z,100042.38
2022-11-07T07:46:17.669Z,100020.91
2022-11-07T07:48:45.536Z,100019.22
2022-11-07T07:51:13.411Z,100014.81
2022-11-07T07:53:41.467Z,100005.09
2022-11-07T07:56:09.649Z,100010.47
2022-11-07T07:58:38.943Z,100023.03
2022-11-07T08:01:10.446Z,100031.34
2022-11-07T08:04:00.172Z,100002.69
2022-11-07T08:06:27.594Z,100009.47
2022-11-07T08:08:55.508Z,100036.88
2022-11-07T08:11:23.467Z,100043.06
2022-11-07T08:13:54.347Z,100010.88
2022-11-07T08:16:25.183Z,100026.97
2022-11-07T08:18:53.045Z,100032.22
2022-11-07T08:21:20.960Z,100026.69
2022-11-07T08:23:53.348Z,100022.88
2022-11-07T08:26:21.479Z,100010.47
2022-11-07T08:28:49.380Z,100015.81
2022-11-07T08:31:18.674Z,100006.66
2022-11-07T08:33:46.612Z,100001.13
2022-11-07T08:36:14.684Z,100000.28
2022-11-07T08:38:42.524Z,99984.03
2022-11-07T08:41:10.825Z,99997.31
2022-11-07T08:43:38.859Z,100000.84
2022-11-07T08:46:07.095Z,99997.88
2022-11-07T08:48:36.471Z,99988.81
2022-11-07T08:51:04.489Z,99989.97
2022-11-07T08:53:33.062Z,99984.31
2022-11-07T08:56:05.003Z,99977.69
2022-11-07T08:58:33.011Z,99983.75
2022-11-07T09:01:01.454Z,99987.13
2022-11-07T09:03:48.859Z,99986.28
2022-11-07T09:06:19.228Z,99982.59
2022-11-07T09:08:47.221Z,99988.56
2022-11-07T09:11:18.846Z,99994.75
2022-11-07T09:13:47.928Z,99973.25
2022-11-07T09:16:17.499Z,99979.66
2022-11-07T09:18:46.375Z,99974.97
2022-11-07T09:21:19.080Z,99966.75
2022-11-07T09:23:51.490Z,99964.94
2022-11-07T09:26:19.500Z,99966.63
2022-11-07T09:28:51.633Z,99962.13
2022-11-07T09:31:22.160Z,99960.56
2022-11-07T09:33:50.043Z,99962.97
2022-11-07T09:36:18.027Z,99954.91
2022-11-07T09:38:46.020Z,99950.53
2022-11-07T09:41:26.966Z,99957.44
2022-11-07T09:44:05.851Z,99959.44
2022-11-07T09:46:46.226Z,99957.59
2022-11-07T09:49:19.632Z,99955.03
2022-11-07T09:51:51.789Z,99956.88
2022-11-07T09:54:23.404Z,99957.59
2022-11-07T09:56:53.676Z,99947.69
2022-11-07T09:59:26.351Z,99941.91
2022-11-07T10:01:54.556Z,99940.88
2022-11-07T10:04:26.098Z,99940.44
2022-11-07T10:06:59.983Z,99939.31
2022-11-07T10:09:40.303Z,99932.09
2022-11-07T10:12:23.290Z,99922.22
2022-11-07T10:14:58.931Z,99940.75
2022-11-07T10:17:37.364Z,99919.13
2022-11-07T10:20:23.380Z,99929.16
2022-11-07T10:23:04.523Z,99932.69
2022-11-07T10:25:40.825Z,99891.34
2022-11-07T10:28:18.739Z,99922.13
2022-11-07T10:30:49.648Z,99913.63
2022-11-07T10:33:34.835Z,99912.31
2022-11-07T10:36:06.720Z,99915.84
2022-11-07T10:38:36.501Z,99914.72
2022-11-07T10:41:04.415Z,99924.59
2022-11-07T10:43:37.785Z,99923.47
2022-11-07T10:46:11.900Z,99918.09
2022-11-07T10:48:39.881Z,99912.72
2022-11-07T10:51:07.782Z,99914.72
2022-11-07T10:53:44.574Z,99909.91
2022-11-07T10:56:14.298Z,99905.22
2022-11-07T10:58:47.132Z,99907.44
2022-11-07T11:01:15.240Z,99901.22
2022-11-07T11:03:45.768Z,99914.38
2022-11-07T11:06:24.272Z,99909.56
2022-11-07T11:08:53.421Z,99905.16
2022-11-07T11:11:34.089Z,99904.19
2022-11-07T11:14:06.073Z,99897.09
2022-11-07T11:16:37.676Z,99900.81
2022-11-07T11:19:07.011Z,99908.13
2022-11-07T11:21:43.390Z,99906.47
2022-11-07T11:24:23.084Z,99894.72
2022-11-07T11:26:53.196Z,99877.56
2022-11-07T11:29:34.276Z,99890.63
2022-11-07T11:32:05.809Z,99898.00
2022-11-07T11:34:43.469Z,99881.03
2022-11-07T11:37:18.183Z,99879.34
2022-11-07T11:39:50.480Z,99863.84
2022-11-07T11:42:31.416Z,99884.88
2022-11-07T11:45:10.553Z,99876.13
2022-11-07T11:47:42.117Z,99872.03
2022-11-07T11:50:17.754Z,99867.97
2022-11-07T11:52:46.409Z,99873.16
2022-11-07T11:55:16.614Z,99868.66
2022-11-07T11:57:55.154Z,99865.09
2022-11-07T12:00:25.981Z,99874.31
2022-11-07T12:03:15.852Z,99862.88
2022-11-07T12:06:14.904Z,99867.56
2022-11-07T12:09:18.253Z,99863.13
2022-11-07T12:11:57.989Z,99859.88
2022-11-07T12:14:41.172Z,99859.06
2022-11-07T12:17:19.106Z,99849.31
2022-11-07T12:19:56.533Z,99848.31
2022-11-07T12:22:38.299Z,99840.25
2022-11-07T12:25:11.000Z,99835.03
2022-11-07T12:27:48.611Z,99836.72
2022-11-07T12:30:22.690Z,99835.88
2022-11-07T12:33:07.196Z,99827.13
2022-11-07T12:35:43.628Z,99819.06
2022-11-07T12:38:30.359Z,99828.81
2022-11-07T12:41:05.846Z,99825.44
2022-11-07T12:43:53.270Z,99820.91
2022-11-07T12:46:31.451Z,99817.38
2022-11-07T12:49:22.155Z,99810.16
2022-11-07T12:52:00.178Z,99808.78
2022-11-07T12:54:47.636Z,99804.09
2022-11-07T12:57:19.967Z,99804.25
2022-11-07T12:59:54.162Z,99797.88
2022-11-07T13:02:44.641Z,99789.28
2022-11-07T13:05:36.600Z,99799.88
2022-11-07T13:08:11.807Z,99788.28
2022-11-07T13:10:48.973Z,99789.03
2022-11-07T13:13:22.071Z,99793.06
2022-11-07T13:16:14.016Z,99783.03
2022-11-07T13:18:38.116Z,99794.28
2022-11-07T13:21:08.869Z,99789.38
2022-11-07T13:23:36.873Z,99786.69
2022-11-07T13:26:32.403Z,99780.19
2022-11-07T13:29:00.355Z,99785.38
2022-11-07T13:31:36.780Z,99779.84
2022-11-07T13:34:12.247Z,99782.53
2022-11-07T13:36:42.007Z,99777.88
2022-11-07T13:39:14.302Z,99781.09
2022-11-07T13:41:44.524Z,99774.06
2022-11-07T13:44:21.544Z,99781.94
2022-11-07T13:46:52.660Z,99771.38
2022-11-07T13:49:26.426Z,99772.91
2022-11-07T13:51:59.567Z,99769.38
2022-11-07T13:54:32.223Z,99773.88
2022-11-07T13:57:07.329Z,99764.84
2022-11-07T13:59:45.136Z,99761.16
2022-11-07T14:02:20.867Z,99764.00
2022-11-07T14:05:15.189Z,99757.09
2022-11-07T14:07:44.757Z,99766.28
2022-11-07T14:10:24.310Z,99757.38
2022-11-07T14:12:54.935Z,99759.09
2022-11-07T14:15:22.950Z,99747.31
2022-11-07T14:17:51.387Z,99741.94
2022-11-07T14:20:21.058Z,99749.03
2022-11-07T14:22:53.317Z,99747.19
2022-11-07T14:25:29.228Z,99747.03
2022-11-07T14:27:57.553Z,99744.50
2022-11-07T14:30:27.471Z,99738.13
2022-11-07T14:32:57.725Z,99708.81
2022-11-07T14:35:28.485Z,99726.09
2022-11-07T14:37:58.923Z,99719.00
2022-11-07T14:40:28.024Z,99726.09
2022-11-07T14:42:56.052Z,99722.56
2022-11-07T14:45:48.534Z,99716.19
2022-11-07T14:48:14.245Z,99716.34
2022-11-07T14:50:43.178Z,99717.00
2022-11-07T14:53:19.070Z,99719.56
2022-11-07T14:55:51.332Z,99713.66
2022-11-07T14:58:23.627Z,99701.22
2022-11-07T15:00:56.974Z,99699.38
2022-11-07T15:03:32.769Z,99696.84
2022-11-07T15:06:01.102Z,99691.47
2022-11-07T15:08:33.520Z,99692.16
2022-11-07T15:11:04.608Z,99676.22
2022-11-07T15:13:34.336Z,99679.75
2022-11-07T15:16:05.487Z,99678.03
2022-11-07T15:18:38.744Z,99688.78
2022-11-07T15:21:08.225Z,99692.47
2022-11-07T15:23:37.467Z,99681.72
2022-11-07T15:26:13.080Z,99678.88
2022-11-07T15:28:50.456Z,99686.94
2022-11-07T15:31:24.268Z,99684.94
2022-11-07T15:33:52.869Z,99677.88
2022-11-07T15:36:20.978Z,99677.75
2022-11-07T15:38:51.916Z,99679.41
2022-11-07T15:41:20.204Z,99671.53
2022-11-07T15:43:48.264Z,99662.78
2022-11-07T15:46:25.498Z,99662.59
2022-11-07T15:48:54.130Z,99660.94
2022-11-07T15:51:22.006Z,99645.66
2022-11-07T15:53:51.427Z,99639.59
2022-11-07T15:56:23.142Z,99633.75
2022-11-07T15:58:51.816Z,99631.41
2022-11-07T16:01:20.031Z,99627.38
2022-11-07T16:03:48.018Z,99635.28
2022-11-07T16:06:20.249Z,99612.34
2022-11-07T16:08:48.329Z,99630.06
2022-11-07T16:11:17.585Z,99624.53
2022-11-07T16:13:45.942Z,99627.09
2022-11-07T16:16:20.243Z,99623.25
2022-11-07T16:18:50.945Z,99607.06
2022-11-07T16:21:19.305Z,99618.00
2022-11-07T16:23:49.789Z,99611.81
2022-11-07T16:26:26.388Z,99612.81
2022-11-07T16:28:54.383Z,99608.59
2022-11-07T16:31:22.321Z,99604.38
2022-11-07T16:33:50.512Z,99604.06
2022-11-07T16:36:22.527Z,99598.69
2022-11-07T16:38:50.499Z,99598.00
2022-11-07T16:41:20.488Z,99592.63
2022-11-07T16:43:48.784Z,99591.63
2022-11-07T16:46:18.848Z,99582.03
2022-11-07T16:48:48.227Z,99590.78
2022-11-07T16:51:17.790Z,99587.94
2022-11-07T16:53:46.311Z,99586.25
2022-11-07T16:56:25.330Z,99565.72
2022-11-07T16:58:54.591Z,99584.25
2022-11-07T17:01:24.213Z,99584.41
2022-11-07T17:03:52.424Z,99585.41
2022-11-07T17:06:26.305Z,99574.50
2022-11-07T17:08:56.993Z,99582.72
2022-11-07T17:11:29.902Z,99576.53
2022-11-07T17:13:57.973Z,99565.91
2022-11-07T17:16:29.426Z,99575.66
2022-11-07T17:18:57.956Z,99564.94
2022-11-07T17:21:27.892Z,99569.44
2022-11-07T17:23:57.281Z,99569.44
2022-11-07T17:26:28.644Z,99567.75
2022-11-07T17:28:59.168Z,99568.78
2022-11-07T17:31:27.386Z,99561.00
2022-11-07T17:33:55.495Z,99570.91
2022-11-07T17:36:32.075Z,99564.56
2022-11-07T17:39:08.038Z,99562.84
2022-11-07T17:41:36.491Z,99564.84
2022-11-07T17:44:05.839Z,99558.81
2022-11-07T17:46:35.739Z,99568.69
2022-11-07T17:49:06.831Z,99566.88
2022-11-07T17:51:35.933Z,99557.28
2022-11-07T17:54:04.570Z,99558.09
2022-11-07T17:56:34.503Z,99559.97
2022-11-07T17:59:07.952Z,99558.09
2022-11-07T18:01:37.849Z,99549.22
2022-11-07T18:04:07.239Z,99548.38
2022-11-07T18:06:36.540Z,99506.16
2022-11-07T18:09:06.108Z,99553.88
2022-11-07T18:11:35.142Z,99542.16
2022-11-07T18:14:03.637Z,99548.50
2022-11-07T18:16:36.058Z,99546.66
2022-11-07T18:19:04.837Z,99546.00
2022-11-07T18:21:33.712Z,99541.59
2022-11-07T18:24:02.084Z,99545.13
2022-11-07T18:26:31.999Z,99549.66
2022-11-07T18:29:03.236Z,99551.34
2022-11-07T18:31:32.561Z,99542.63
2022-11-07T18:34:04.502Z,99544.56
2022-11-07T18:36:35.103Z,99549.13
2022-11-07T18:39:03.767Z,99542.22
2022-11-07T18:41:31.787Z,99537.84
2022-11-07T18:44:04.493Z,99528.56
2022-11-07T18:46:34.782Z,99528.56
2022-11-07T18:49:03.844Z,99529.41
2022-11-07T18:51:31.895Z,99532.09
2022-11-07T18:54:01.875Z,99521.97
2022-11-07T18:56:29.800Z,99522.81
2022-11-07T18:58:57.804Z,99516.59
2022-11-07T19:01:28.565Z,99521.09
2022-11-07T19:03:59.743Z,99521.09
2022-11-07T19:06:30.268Z,99512.38
2022-11-07T19:08:58.223Z,99511.69
2022-11-07T19:11:29.312Z,99495.69
2022-11-07T19:13:58.368Z,99514.38
2022-11-07T19:16:26.631Z,99510.16
2022-11-07T19:18:54.674Z,99507.47
2022-11-07T19:21:24.490Z,99498.75
2022-11-07T19:23:52.489Z,99502.56
2022-11-07T19:26:20.832Z,99498.06
2022-11-07T19:28:49.549Z,99494.66
2022-11-07T19:31:17.825Z,99481.41
2022-11-07T19:33:46.541Z,99475.19
2022-11-07T19:36:16.635Z,99477.88
2022-11-07T19:38:46.265Z,99492.63
2022-11-07T19:41:15.572Z,99496.97
2022-11-07T19:43:48.354Z,99493.31
2022-11-07T19:46:18.671Z,99493.31
2022-11-07T19:48:46.780Z,99500.66
2022-11-07T19:51:21.655Z,99492.63
2022-11-07T19:53:55.005Z,99496.13
2022-11-07T19:56:24.161Z,99495.31
2022-11-07T19:58:52.694Z,99481.44
2022-11-07T20:01:23.430Z,99493.78
2022-11-07T20:03:53.682Z,99501.81
2022-11-07T20:06:23.764Z,99500.97
2022-11-07T20:08:52.211Z,99496.59
2022-11-07T20:11:23.788Z,99488.53
2022-11-07T20:13:52.802Z,99488.84
2022-11-07T20:16:20.787Z,99495.75
2022-11-07T20:18:48.764Z,99495.75
2022-11-07T20:21:20.336Z,99493.91
2022-11-07T20:23:49.815Z,99494.59
2022-11-07T20:26:20.650Z,99497.81
2022-11-07T20:28:50.705Z,99512.09
2022-11-07T20:31:21.614Z,99515.44
2022-11-07T20:33:50.171Z,99506.56
2022-11-07T20:36:20.035Z,99508.94
2022-11-07T20:38:48.014Z,99512.47
2022-11-07T20:41:16.842Z,99511.47
2022-11-07T20:43:44.783Z,99465.25
2022-11-07T20:46:16.284Z,99517.53
2022-11-07T20:48:45.099Z,99518.50
2022-11-07T20:51:16.372Z,99520.22
2022-11-07T20:53:49.812Z,99517.97
2022-11-07T20:56:19.617Z,99530.09
2022-11-07T20:58:47.943Z,99520.53
2022-11-07T21:01:19.372Z,99528.78
2022-11-07T21:03:48.752Z,99525.28
2022-11-07T21:06:17.664Z,99528.78
2022-11-07T21:08:47.359Z,99535.16
2022-11-07T21:11:16.679Z,99527.13
2022-11-07T21:13:49.576Z,99527.25
2022-11-07T21:16:22.767Z,99526.44
2022-11-07T21:18:51.630Z,99523.88
2022-11-07T21:21:20.956Z,99528.09
2022-11-07T21:23:50.048Z,99525.41
2022-11-07T21:26:20.452Z,99521.88
2022-11-07T21:28:48.609Z,99508.84
2022-11-07T21:31:18.917Z,99536.69
2022-11-07T21:33:48.336Z,99539.38
2022-11-07T21:36:18.475Z,99533.84
2022-11-07T21:38:47.316Z,99530.47
2022-11-07T21:41:16.135Z,99538.53
2022-11-07T21:43:44.206Z,99550.97
2022-11-07T21:46:14.053Z,99543.75
2022-11-07T21:48:42.660Z,99546.41
2022-11-07T21:51:15.803Z,99544.59
2022-11-07T21:53:43.800Z,99546.59
2022-11-07T21:56:15.905Z,99548.28
2022-11-07T21:58:44.038Z,99544.75
2022-11-07T22:01:11.995Z,99536.75
2022-11-07T22:06:29.562Z,99555.50
2022-11-07T22:08:57.453Z,99536.06
2022-11-07T22:11:25.470Z,99561.53
2022-11-07T22:13:53.344Z,99564.22
2022-11-07T22:16:22.370Z,99573.25
2022-11-07T22:18:50.706Z,99566.91
2022-11-07T22:21:20.792Z,99576.66
2022-11-07T22:23:50.609Z,99566.91
2022-11-07T22:26:20.634Z,99577.66
2022-11-07T22:28:49.522Z,99575.94
2022-11-07T22:31:19.275Z,99579.34
2022-11-07T22:33:47.497Z,99583.00
2022-11-07T22:36:15.882Z,99579.78
2022-11-07T22:38:44.070Z,99581.31
2022-11-07T22:41:16.883Z,99582.03
2022-11-07T22:43:44.918Z,99591.06
2022-11-07T22:46:16.437Z,99579.47
2022-11-07T22:48:45.058Z,99586.38
2022-11-07T22:51:15.284Z,99589.91
2022-11-07T22:53:43.212Z,99586.38
2022-11-07T22:56:14.101Z,99590.78
2022-11-07T22:58:42.781Z,99587.41
2022-11-07T23:01:16.886Z,99592.59
2022-11-07T23:03:45.475Z,99601.63
2022-11-07T23:06:13.838Z,99598.97
2022-11-07T23:08:41.749Z,99598.97
2022-11-07T23:11:44.824Z,99589.69
2022-11-07T23:14:04.560Z,99597.28
2022-11-07T23:16:35.187Z,99608.03
2022-11-07T23:19:05.599Z,99597.13
2022-11-07T23:21:34.285Z,99606.03
2022-11-07T23:24:02.893Z,99596.59
2022-11-07T23:26:34.572Z,99605.19
2022-11-07T23:29:09.041Z,99580.56
2022-11-07T23:31:38.820Z,99614.25
2022-11-07T23:34:07.482Z,99614.25
2022-11-07T23:36:35.544Z,99615.06
2022-11-07T23:39:07.470Z,99616.94
2022-11-07T23:41:36.953Z,99620.31
2022-11-07T23:44:05.003Z,99614.94
2022-11-07T23:46:50.153Z,99619.75
2022-11-07T23:49:40.698Z,99601.88
2022-11-07T23:52:08.701Z,99627.66
2022-11-07T23:54:53.800Z,99632.19
2022-11-07T23:57:23.283Z,99636.72
